sensor_id;sensor_type;location;lat;lon;timestamp;P1;durP1;ratioP1;P2;durP2;ratioP2
52554;SDS011;38455;52.710;6.502;2023-09-19T00:00:36;4.07;;;1.20;;
52554;SDS011;38455;52.710;6.502;2023-09-19T00:03:02;5.68;;;1.23;;
52554;SDS011;38455;52.710;6.502;2023-09-19T00:05:29;5.45;;;1.40;;
52554;SDS011;38455;52.710;6.502;2023-09-19T00:08:00;6.03;;;1.38;;
52554;SDS011;38455;52.710;6.502;2023-09-19T00:10:26;8.90;;;1.85;;
52554;SDS011;38455;52.710;6.502;2023-09-19T00:12:56;6.22;;;1.65;;
52554;SDS011;38455;52.710;6.502;2023-09-19T00:15:24;6.75;;;1.48;;
52554;SDS011;38455;52.710;6.502;2023-09-19T00:17:53;6.88;;;1.83;;
52554;SDS011;38455;52.710;6.502;2023-09-19T00:20:19;8.73;;;1.60;;
52554;SDS011;38455;52.710;6.502;2023-09-19T00:22:48;10.50;;;1.90;;
52554;SDS011;38455;52.710;6.502;2023-09-19T00:25:15;5.38;;;1.40;;
52554;SDS011;38455;52.710;6.502;2023-09-19T00:27:41;9.90;;;2.20;;
52554;SDS011;38455;52.710;6.502;2023-09-19T00:30:08;9.73;;;1.70;;
52554;SDS011;38455;52.710;6.502;2023-09-19T00:32:49;7.32;;;1.60;;
52554;SDS011;38455;52.710;6.502;2023-09-19T00:35:19;9.50;;;1.80;;
52554;SDS011;38455;52.710;6.502;2023-09-19T00:37:48;13.90;;;2.72;;
52554;SDS011;38455;52.710;6.502;2023-09-19T00:40:14;12.15;;;2.50;;
52554;SDS011;38455;52.710;6.502;2023-09-19T00:42:48;8.90;;;2.30;;
52554;SDS011;38455;52.710;6.502;2023-09-19T00:45:15;6.28;;;1.80;;
52554;SDS011;38455;52.710;6.502;2023-09-19T00:47:49;11.43;;;2.60;;
52554;SDS011;38455;52.710;6.502;2023-09-19T00:50:20;6.70;;;2.10;;
52554;SDS011;38455;52.710;6.502;2023-09-19T00:52:50;11.63;;;3.35;;
52554;SDS011;38455;52.710;6.502;2023-09-19T00:55:21;10.48;;;2.13;;
52554;SDS011;38455;52.710;6.502;2023-09-19T00:57:48;12.40;;;2.20;;
52554;SDS011;38455;52.710;6.502;2023-09-19T01:00:15;14.52;;;2.67;;
52554;SDS011;38455;52.710;6.502;2023-09-19T01:02:44;10.90;;;2.42;;
52554;SDS011;38455;52.710;6.502;2023-09-19T01:05:11;12.48;;;2.17;;
52554;SDS011;38455;52.710;6.502;2023-09-19T01:07:40;9.65;;;1.95;;
52554;SDS011;38455;52.710;6.502;2023-09-19T01:10:11;11.27;;;2.33;;
52554;SDS011;38455;52.710;6.502;2023-09-19T01:15:18;8.70;;;2.08;;
52554;SDS011;38455;52.710;6.502;2023-09-19T01:18:02;11.82;;;2.63;;
52554;SDS011;38455;52.710;6.502;2023-09-19T01:21:02;18.70;;;3.65;;
52554;SDS011;38455;52.710;6.502;2023-09-19T01:23:55;18.73;;;2.58;;
52554;SDS011;38455;52.710;6.502;2023-09-19T01:26:49;8.60;;;2.17;;
52554;SDS011;38455;52.710;6.502;2023-09-19T01:29:44;17.45;;;3.00;;
52554;SDS011;38455;52.710;6.502;2023-09-19T01:32:11;14.80;;;2.78;;
52554;SDS011;38455;52.710;6.502;2023-09-19T01:34:44;17.15;;;3.80;;
52554;SDS011;38455;52.710;6.502;2023-09-19T01:37:14;12.52;;;2.60;;
52554;SDS011;38455;52.710;6.502;2023-09-19T01:39:45;10.50;;;3.22;;
52554;SDS011;38455;52.710;6.502;2023-09-19T01:45:12;7.45;;;2.10;;
52554;SDS011;38455;52.710;6.502;2023-09-19T01:47:48;13.82;;;2.60;;
52554;SDS011;38455;52.710;6.502;2023-09-19T01:53:15;7.25;;;2.17;;
52554;SDS011;38455;52.710;6.502;2023-09-19T01:55:49;11.98;;;2.40;;
52554;SDS011;38455;52.710;6.502;2023-09-19T01:58:39;13.23;;;2.13;;
52554;SDS011;38455;52.710;6.502;2023-09-19T02:01:02;8.43;;;2.20;;
52554;SDS011;38455;52.710;6.502;2023-09-19T02:03:30;14.38;;;2.95;;
52554;SDS011;38455;52.710;6.502;2023-09-19T02:05:58;9.77;;;2.70;;
52554;SDS011;38455;52.710;6.502;2023-09-19T02:08:24;15.70;;;3.15;;
52554;SDS011;38455;52.710;6.502;2023-09-19T02:10:51;10.48;;;2.55;;
52554;SDS011;38455;52.710;6.502;2023-09-19T02:13:18;8.93;;;2.40;;
52554;SDS011;38455;52.710;6.502;2023-09-19T02:15:45;12.40;;;2.92;;
52554;SDS011;38455;52.710;6.502;2023-09-19T02:18:12;17.85;;;2.92;;
52554;SDS011;38455;52.710;6.502;2023-09-19T02:20:38;9.60;;;2.40;;
52554;SDS011;38455;52.710;6.502;2023-09-19T02:23:04;11.10;;;2.63;;
52554;SDS011;38455;52.710;6.502;2023-09-19T02:25:31;8.90;;;2.53;;
52554;SDS011;38455;52.710;6.502;2023-09-19T02:28:00;10.82;;;2.38;;
52554;SDS011;38455;52.710;6.502;2023-09-19T02:30:28;10.88;;;2.83;;
52554;SDS011;38455;52.710;6.502;2023-09-19T02:32:55;12.60;;;2.90;;
52554;SDS011;38455;52.710;6.502;2023-09-19T02:35:20;9.50;;;2.40;;
52554;SDS011;38455;52.710;6.502;2023-09-19T02:37:50;11.88;;;2.65;;
52554;SDS011;38455;52.710;6.502;2023-09-19T02:40:15;15.85;;;2.65;;
52554;SDS011;38455;52.710;6.502;2023-09-19T02:42:45;19.58;;;2.83;;
52554;SDS011;38455;52.710;6.502;2023-09-19T02:45:15;11.95;;;2.80;;
52554;SDS011;38455;52.710;6.502;2023-09-19T02:47:43;9.63;;;2.40;;
52554;SDS011;38455;52.710;6.502;2023-09-19T02:50:09;9.85;;;3.47;;
52554;SDS011;38455;52.710;6.502;2023-09-19T02:52:41;8.48;;;2.15;;
52554;SDS011;38455;52.710;6.502;2023-09-19T02:55:12;13.60;;;2.40;;
52554;SDS011;38455;52.710;6.502;2023-09-19T02:57:39;12.82;;;2.40;;
52554;SDS011;38455;52.710;6.502;2023-09-19T03:00:08;7.57;;;2.60;;
52554;SDS011;38455;52.710;6.502;2023-09-19T03:02:37;7.50;;;2.00;;
52554;SDS011;38455;52.710;6.502;2023-09-19T03:05:05;12.48;;;2.65;;
52554;SDS011;38455;52.710;6.502;2023-09-19T03:07:31;14.07;;;2.83;;
52554;SDS011;38455;52.710;6.502;2023-09-19T03:09:57;8.07;;;2.40;;
52554;SDS011;38455;52.710;6.502;2023-09-19T03:12:23;10.13;;;2.20;;
52554;SDS011;38455;52.710;6.502;2023-09-19T03:14:48;17.30;;;2.88;;
52554;SDS011;38455;52.710;6.502;2023-09-19T03:17:15;12.77;;;2.65;;
52554;SDS011;38455;52.710;6.502;2023-09-19T03:19:43;12.32;;;2.67;;
52554;SDS011;38455;52.710;6.502;2023-09-19T03:22:09;8.38;;;2.20;;
52554;SDS011;38455;52.710;6.502;2023-09-19T03:24:35;7.30;;;2.13;;
52554;SDS011;38455;52.710;6.502;2023-09-19T03:27:02;11.35;;;2.60;;
52554;SDS011;38455;52.710;6.502;2023-09-19T03:29:29;12.65;;;2.58;;
52554;SDS011;38455;52.710;6.502;2023-09-19T03:31:55;8.07;;;1.90;;
52554;SDS011;38455;52.710;6.502;2023-09-19T03:34:20;8.88;;;2.15;;
52554;SDS011;38455;52.710;6.502;2023-09-19T03:36:46;10.95;;;2.50;;
52554;SDS011;38455;52.710;6.502;2023-09-19T03:39:12;8.30;;;2.58;;
52554;SDS011;38455;52.710;6.502;2023-09-19T03:41:40;15.63;;;2.70;;
52554;SDS011;38455;52.710;6.502;2023-09-19T03:44:06;9.15;;;2.67;;
52554;SDS011;38455;52.710;6.502;2023-09-19T03:46:32;10.07;;;2.50;;
52554;SDS011;38455;52.710;6.502;2023-09-19T03:49:00;11.10;;;2.92;;
52554;SDS011;38455;52.710;6.502;2023-09-19T03:51:26;10.30;;;2.40;;
52554;SDS011;38455;52.710;6.502;2023-09-19T03:53:51;15.20;;;2.80;;
52554;SDS011;38455;52.710;6.502;2023-09-19T03:56:17;16.27;;;2.55;;
52554;SDS011;38455;52.710;6.502;2023-09-19T03:58:43;13.88;;;3.15;;
52554;SDS011;38455;52.710;6.502;2023-09-19T04:01:09;9.88;;;2.42;;
52554;SDS011;38455;52.710;6.502;2023-09-19T04:03:34;11.88;;;2.90;;
52554;SDS011;38455;52.710;6.502;2023-09-19T04:06:11;10.27;;;2.50;;
52554;SDS011;38455;52.710;6.502;2023-09-19T04:08:38;10.45;;;3.15;;
52554;SDS011;38455;52.710;6.502;2023-09-19T04:11:03;10.38;;;2.50;;
52554;SDS011;38455;52.710;6.502;2023-09-19T04:13:29;21.48;;;3.72;;
52554;SDS011;38455;52.710;6.502;2023-09-19T04:15:55;8.57;;;2.28;;
52554;SDS011;38455;52.710;6.502;2023-09-19T04:18:20;11.02;;;2.90;;
52554;SDS011;38455;52.710;6.502;2023-09-19T04:20:49;11.45;;;3.03;;
52554;SDS011;38455;52.710;6.502;2023-09-19T04:23:15;13.13;;;2.88;;
52554;SDS011;38455;52.710;6.502;2023-09-19T04:25:41;10.75;;;2.70;;
52554;SDS011;38455;52.710;6.502;2023-09-19T04:28:06;11.95;;;3.00;;
52554;SDS011;38455;52.710;6.502;2023-09-19T04:30:32;12.55;;;2.65;;
52554;SDS011;38455;52.710;6.502;2023-09-19T04:32:58;18.00;;;2.70;;
52554;SDS011;38455;52.710;6.502;2023-09-19T04:35:26;17.70;;;4.00;;
52554;SDS011;38455;52.710;6.502;2023-09-19T04:37:54;9.48;;;2.38;;
52554;SDS011;38455;52.710;6.502;2023-09-19T04:40:20;15.88;;;3.80;;
52554;SDS011;38455;52.710;6.502;2023-09-19T04:42:50;14.20;;;2.88;;
52554;SDS011;38455;52.710;6.502;2023-09-19T04:47:47;13.68;;;3.53;;
52554;SDS011;38455;52.710;6.502;2023-09-19T04:50:13;11.18;;;3.15;;
52554;SDS011;38455;52.710;6.502;2023-09-19T04:52:45;10.73;;;2.65;;
52554;SDS011;38455;52.710;6.502;2023-09-19T04:55:14;15.48;;;2.60;;
52554;SDS011;38455;52.710;6.502;2023-09-19T04:57:46;9.90;;;2.67;;
52554;SDS011;38455;52.710;6.502;2023-09-19T05:00:15;14.80;;;3.30;;
52554;SDS011;38455;52.710;6.502;2023-09-19T05:02:44;13.20;;;3.22;;
52554;SDS011;38455;52.710;6.502;2023-09-19T05:05:14;12.35;;;2.80;;
52554;SDS011;38455;52.710;6.502;2023-09-19T05:07:42;17.25;;;2.65;;
52554;SDS011;38455;52.710;6.502;2023-09-19T05:10:09;12.07;;;3.45;;
52554;SDS011;38455;52.710;6.502;2023-09-19T05:12:36;15.52;;;2.92;;
52554;SDS011;38455;52.710;6.502;2023-09-19T05:15:03;10.05;;;2.90;;
52554;SDS011;38455;52.710;6.502;2023-09-19T05:17:30;15.25;;;3.10;;
52554;SDS011;38455;52.710;6.502;2023-09-19T05:19:56;15.27;;;2.58;;
52554;SDS011;38455;52.710;6.502;2023-09-19T05:22:23;13.30;;;3.25;;
52554;SDS011;38455;52.710;6.502;2023-09-19T05:24:52;15.18;;;2.47;;
52554;SDS011;38455;52.710;6.502;2023-09-19T05:27:18;16.15;;;3.55;;
52554;SDS011;38455;52.710;6.502;2023-09-19T05:29:45;17.95;;;3.53;;
52554;SDS011;38455;52.710;6.502;2023-09-19T05:32:11;15.68;;;3.35;;
52554;SDS011;38455;52.710;6.502;2023-09-19T05:34:37;10.38;;;3.03;;
52554;SDS011;38455;52.710;6.502;2023-09-19T05:37:04;11.93;;;3.70;;
52554;SDS011;38455;52.710;6.502;2023-09-19T05:39:33;16.45;;;3.05;;
52554;SDS011;38455;52.710;6.502;2023-09-19T05:41:59;15.52;;;3.00;;
52554;SDS011;38455;52.710;6.502;2023-09-19T05:44:28;10.02;;;2.35;;
52554;SDS011;38455;52.710;6.502;2023-09-19T05:46:54;14.55;;;3.67;;
52554;SDS011;38455;52.710;6.502;2023-09-19T05:49:21;18.15;;;4.15;;
52554;SDS011;38455;52.710;6.502;2023-09-19T05:51:49;12.43;;;2.75;;
52554;SDS011;38455;52.710;6.502;2023-09-19T05:54:18;18.20;;;3.42;;
52554;SDS011;38455;52.710;6.502;2023-09-19T05:56:45;14.25;;;3.97;;
52554;SDS011;38455;52.710;6.502;2023-09-19T05:59:12;13.48;;;3.20;;
52554;SDS011;38455;52.710;6.502;2023-09-19T06:01:40;11.57;;;2.60;;
52554;SDS011;38455;52.710;6.502;2023-09-19T06:04:07;14.50;;;3.28;;
52554;SDS011;38455;52.710;6.502;2023-09-19T06:06:33;12.90;;;2.70;;
52554;SDS011;38455;52.710;6.502;2023-09-19T06:09:01;14.82;;;3.08;;
52554;SDS011;38455;52.710;6.502;2023-09-19T06:11:31;13.18;;;2.83;;
52554;SDS011;38455;52.710;6.502;2023-09-19T06:14:00;13.93;;;2.78;;
52554;SDS011;38455;52.710;6.502;2023-09-19T06:16:27;15.00;;;3.28;;
52554;SDS011;38455;52.710;6.502;2023-09-19T06:18:54;15.27;;;3.45;;
52554;SDS011;38455;52.710;6.502;2023-09-19T06:21:21;9.43;;;2.63;;
52554;SDS011;38455;52.710;6.502;2023-09-19T06:23:48;19.25;;;4.65;;
52554;SDS011;38455;52.710;6.502;2023-09-19T06:26:14;9.73;;;2.47;;
52554;SDS011;38455;52.710;6.502;2023-09-19T06:28:39;14.80;;;3.10;;
52554;SDS011;38455;52.710;6.502;2023-09-19T06:31:06;10.18;;;3.17;;
52554;SDS011;38455;52.710;6.502;2023-09-19T06:33:35;13.05;;;3.13;;
52554;SDS011;38455;52.710;6.502;2023-09-19T06:36:04;13.90;;;3.47;;
52554;SDS011;38455;52.710;6.502;2023-09-19T06:38:31;10.63;;;2.45;;
52554;SDS011;38455;52.710;6.502;2023-09-19T06:40:59;9.88;;;3.42;;
52554;SDS011;38455;52.710;6.502;2023-09-19T06:43:26;12.18;;;2.90;;
52554;SDS011;38455;52.710;6.502;2023-09-19T06:45:53;14.23;;;2.58;;
52554;SDS011;38455;52.710;6.502;2023-09-19T06:48:20;15.02;;;3.30;;
52554;SDS011;38455;52.710;6.502;2023-09-19T06:50:46;14.23;;;2.90;;
52554;SDS011;38455;52.710;6.502;2023-09-19T06:53:13;11.52;;;3.17;;
52554;SDS011;38455;52.710;6.502;2023-09-19T06:55:39;10.05;;;2.53;;
52554;SDS011;38455;52.710;6.502;2023-09-19T06:58:05;13.05;;;2.78;;
52554;SDS011;38455;52.710;6.502;2023-09-19T07:00:35;18.15;;;2.90;;
52554;SDS011;38455;52.710;6.502;2023-09-19T07:05:35;17.23;;;2.97;;
52554;SDS011;38455;52.710;6.502;2023-09-19T07:08:02;17.58;;;4.10;;
52554;SDS011;38455;52.710;6.502;2023-09-19T07:10:29;9.68;;;2.70;;
52554;SDS011;38455;52.710;6.502;2023-09-19T07:15:25;13.55;;;2.90;;
52554;SDS011;38455;52.710;6.502;2023-09-19T07:17:51;13.18;;;2.35;;
52554;SDS011;38455;52.710;6.502;2023-09-19T07:20:19;16.85;;;3.42;;
52554;SDS011;38455;52.710;6.502;2023-09-19T07:22:45;15.07;;;2.80;;
52554;SDS011;38455;52.710;6.502;2023-09-19T07:25:12;14.75;;;3.58;;
52554;SDS011;38455;52.710;6.502;2023-09-19T07:27:39;11.50;;;2.60;;
52554;SDS011;38455;52.710;6.502;2023-09-19T07:30:09;17.67;;;3.10;;
52554;SDS011;38455;52.710;6.502;2023-09-19T07:32:36;10.30;;;3.00;;
52554;SDS011;38455;52.710;6.502;2023-09-19T07:35:03;11.65;;;2.60;;
52554;SDS011;38455;52.710;6.502;2023-09-19T07:37:30;13.00;;;2.70;;
52554;SDS011;38455;52.710;6.502;2023-09-19T07:40:01;10.82;;;2.28;;
52554;SDS011;38455;52.710;6.502;2023-09-19T07:42:34;7.82;;;2.10;;
52554;SDS011;38455;52.710;6.502;2023-09-19T07:45:02;10.70;;;3.53;;
52554;SDS011;38455;52.710;6.502;2023-09-19T07:47:28;8.75;;;2.20;;
52554;SDS011;38455;52.710;6.502;2023-09-19T07:49:55;8.48;;;2.40;;
52554;SDS011;38455;52.710;6.502;2023-09-19T07:52:21;10.52;;;2.63;;
52554;SDS011;38455;52.710;6.502;2023-09-19T07:54:48;11.30;;;3.00;;
52554;SDS011;38455;52.710;6.502;2023-09-19T07:57:14;10.10;;;2.85;;
52554;SDS011;38455;52.710;6.502;2023-09-19T07:59:41;11.77;;;2.30;;
52554;SDS011;38455;52.710;6.502;2023-09-19T08:02:10;12.55;;;2.40;;
52554;SDS011;38455;52.710;6.502;2023-09-19T08:04:43;9.23;;;2.85;;
52554;SDS011;38455;52.710;6.502;2023-09-19T08:07:10;12.75;;;3.00;;
52554;SDS011;38455;52.710;6.502;2023-09-19T08:09:36;10.88;;;2.40;;
52554;SDS011;38455;52.710;6.502;2023-09-19T08:12:04;12.48;;;3.05;;
52554;SDS011;38455;52.710;6.502;2023-09-19T08:14:30;14.30;;;3.05;;
52554;SDS011;38455;52.710;6.502;2023-09-19T08:16:57;13.60;;;2.55;;
52554;SDS011;38455;52.710;6.502;2023-09-19T08:19:26;7.93;;;2.30;;
52554;SDS011;38455;52.710;6.502;2023-09-19T08:21:56;10.98;;;2.50;;
52554;SDS011;38455;52.710;6.502;2023-09-19T08:24:29;11.77;;;2.55;;
52554;SDS011;38455;52.710;6.502;2023-09-19T08:26:55;11.63;;;2.70;;
52554;SDS011;38455;52.710;6.502;2023-09-19T08:29:22;10.55;;;3.00;;
52554;SDS011;38455;52.710;6.502;2023-09-19T08:31:53;12.18;;;2.15;;
52554;SDS011;38455;52.710;6.502;2023-09-19T08:34:19;7.90;;;2.65;;
52554;SDS011;38455;52.710;6.502;2023-09-19T08:36:52;13.80;;;3.95;;
52554;SDS011;38455;52.710;6.502;2023-09-19T08:39:21;11.07;;;2.88;;
52554;SDS011;38455;52.710;6.502;2023-09-19T08:41:48;9.45;;;2.78;;
52554;SDS011;38455;52.710;6.502;2023-09-19T08:44:13;12.35;;;3.25;;
52554;SDS011;38455;52.710;6.502;2023-09-19T08:46:41;12.80;;;2.80;;
52554;SDS011;38455;52.710;6.502;2023-09-19T08:49:18;11.68;;;2.83;;
52554;SDS011;38455;52.710;6.502;2023-09-19T08:52:10;14.32;;;2.80;;
52554;SDS011;38455;52.710;6.502;2023-09-19T08:54:59;12.90;;;2.50;;
52554;SDS011;38455;52.710;6.502;2023-09-19T08:57:32;12.48;;;3.40;;
52554;SDS011;38455;52.710;6.502;2023-09-19T09:00:02;11.88;;;3.20;;
52554;SDS011;38455;52.710;6.502;2023-09-19T09:02:39;7.88;;;2.40;;
52554;SDS011;38455;52.710;6.502;2023-09-19T09:05:08;8.55;;;2.55;;
52554;SDS011;38455;52.710;6.502;2023-09-19T09:07:37;12.15;;;2.78;;
52554;SDS011;38455;52.710;6.502;2023-09-19T09:10:04;12.68;;;2.80;;
52554;SDS011;38455;52.710;6.502;2023-09-19T09:12:30;9.98;;;2.45;;
52554;SDS011;38455;52.710;6.502;2023-09-19T09:14:56;10.55;;;3.33;;
52554;SDS011;38455;52.710;6.502;2023-09-19T09:17:26;8.38;;;2.53;;
52554;SDS011;38455;52.710;6.502;2023-09-19T09:19:52;12.95;;;3.58;;
52554;SDS011;38455;52.710;6.502;2023-09-19T09:22:18;13.18;;;3.28;;
52554;SDS011;38455;52.710;6.502;2023-09-19T09:24:52;12.88;;;2.85;;
52554;SDS011;38455;52.710;6.502;2023-09-19T09:27:19;10.35;;;2.70;;
52554;SDS011;38455;52.710;6.502;2023-09-19T09:29:49;9.52;;;2.58;;
52554;SDS011;38455;52.710;6.502;2023-09-19T09:32:18;14.38;;;2.67;;
52554;SDS011;38455;52.710;6.502;2023-09-19T09:34:49;10.18;;;2.70;;
52554;SDS011;38455;52.710;6.502;2023-09-19T09:37:18;11.73;;;3.00;;
52554;SDS011;38455;52.710;6.502;2023-09-19T09:39:55;11.95;;;3.00;;
52554;SDS011;38455;52.710;6.502;2023-09-19T09:42:33;10.98;;;2.60;;
52554;SDS011;38455;52.710;6.502;2023-09-19T09:45:23;11.60;;;3.42;;
52554;SDS011;38455;52.710;6.502;2023-09-19T09:47:58;10.95;;;2.63;;
52554;SDS011;38455;52.710;6.502;2023-09-19T09:50:29;13.10;;;2.78;;
52554;SDS011;38455;52.710;6.502;2023-09-19T09:58:35;11.82;;;2.97;;
52554;SDS011;38455;52.710;6.502;2023-09-19T10:01:03;12.32;;;2.80;;
52554;SDS011;38455;52.710;6.502;2023-09-19T10:03:40;8.73;;;2.83;;
52554;SDS011;38455;52.710;6.502;2023-09-19T10:06:10;12.85;;;3.10;;
52554;SDS011;38455;52.710;6.502;2023-09-19T10:11:38;16.60;;;2.70;;
52554;SDS011;38455;52.710;6.502;2023-09-19T10:14:14;11.35;;;3.65;;
52554;SDS011;38455;52.710;6.502;2023-09-19T10:16:45;15.35;;;3.30;;
52554;SDS011;38455;52.710;6.502;2023-09-19T10:19:20;10.95;;;2.65;;
52554;SDS011;38455;52.710;6.502;2023-09-19T10:21:50;13.63;;;3.42;;
52554;SDS011;38455;52.710;6.502;2023-09-19T10:24:18;11.77;;;2.85;;
52554;SDS011;38455;52.710;6.502;2023-09-19T10:26:45;13.90;;;3.08;;
52554;SDS011;38455;52.710;6.502;2023-09-19T10:29:14;8.52;;;2.50;;
52554;SDS011;38455;52.710;6.502;2023-09-19T10:31:42;9.63;;;2.53;;
52554;SDS011;38455;52.710;6.502;2023-09-19T10:34:14;16.15;;;3.50;;
52554;SDS011;38455;52.710;6.502;2023-09-19T10:36:40;15.77;;;3.10;;
52554;SDS011;38455;52.710;6.502;2023-09-19T10:39:10;7.72;;;2.42;;
52554;SDS011;38455;52.710;6.502;2023-09-19T10:41:38;12.05;;;2.88;;
52554;SDS011;38455;52.710;6.502;2023-09-19T10:44:05;10.23;;;2.55;;
52554;SDS011;38455;52.710;6.502;2023-09-19T10:46:34;10.48;;;2.88;;
52554;SDS011;38455;52.710;6.502;2023-09-19T10:49:00;9.73;;;2.15;;
52554;SDS011;38455;52.710;6.502;2023-09-19T10:51:30;16.52;;;3.60;;
52554;SDS011;38455;52.710;6.502;2023-09-19T10:54:10;12.35;;;3.58;;
52554;SDS011;38455;52.710;6.502;2023-09-19T10:56:39;12.30;;;2.70;;
52554;SDS011;38455;52.710;6.502;2023-09-19T10:59:15;8.98;;;2.75;;
52554;SDS011;38455;52.710;6.502;2023-09-19T11:04:26;10.65;;;2.45;;
52554;SDS011;38455;52.710;6.502;2023-09-19T11:07:06;13.00;;;3.15;;
52554;SDS011;38455;52.710;6.502;2023-09-19T11:15:02;16.30;;;2.78;;
52554;SDS011;38455;52.710;6.502;2023-09-19T11:17:37;11.93;;;2.42;;
52554;SDS011;38455;52.710;6.502;2023-09-19T11:30:39;8.75;;;2.40;;
52554;SDS011;38455;52.710;6.502;2023-09-19T11:33:21;8.40;;;2.05;;
52554;SDS011;38455;52.710;6.502;2023-09-19T11:43:50;12.93;;;3.00;;
52554;SDS011;38455;52.710;6.502;2023-09-19T11:46:17;12.82;;;2.78;;
52554;SDS011;38455;52.710;6.502;2023-09-19T11:48:49;8.77;;;2.13;;
52554;SDS011;38455;52.710;6.502;2023-09-19T11:53:58;13.68;;;2.78;;
52554;SDS011;38455;52.710;6.502;2023-09-19T11:56:27;13.15;;;2.58;;
52554;SDS011;38455;52.710;6.502;2023-09-19T11:58:54;10.30;;;2.35;;
52554;SDS011;38455;52.710;6.502;2023-09-19T12:01:26;5.13;;;1.85;;
52554;SDS011;38455;52.710;6.502;2023-09-19T12:03:54;10.40;;;2.17;;
52554;SDS011;38455;52.710;6.502;2023-09-19T12:06:23;7.53;;;2.00;;
52554;SDS011;38455;52.710;6.502;2023-09-19T12:08:49;12.45;;;2.83;;
52554;SDS011;38455;52.710;6.502;2023-09-19T12:11:19;9.70;;;2.13;;
52554;SDS011;38455;52.710;6.502;2023-09-19T12:13:46;8.70;;;1.88;;
52554;SDS011;38455;52.710;6.502;2023-09-19T12:16:14;11.10;;;2.20;;
52554;SDS011;38455;52.710;6.502;2023-09-19T12:18:42;10.40;;;2.30;;
52554;SDS011;38455;52.710;6.502;2023-09-19T12:21:25;8.23;;;1.90;;
52554;SDS011;38455;52.710;6.502;2023-09-19T12:26:30;8.40;;;2.83;;
52554;SDS011;38455;52.710;6.502;2023-09-19T12:29:02;13.85;;;2.45;;
52554;SDS011;38455;52.710;6.502;2023-09-19T12:31:30;10.57;;;2.00;;
52554;SDS011;38455;52.710;6.502;2023-09-19T12:34:01;10.75;;;2.30;;
52554;SDS011;38455;52.710;6.502;2023-09-19T12:36:27;11.57;;;2.38;;
52554;SDS011;38455;52.710;6.502;2023-09-19T12:38:58;9.20;;;2.08;;
52554;SDS011;38455;52.710;6.502;2023-09-19T12:41:27;9.90;;;2.10;;
52554;SDS011;38455;52.710;6.502;2023-09-19T12:43:53;8.40;;;2.15;;
52554;SDS011;38455;52.710;6.502;2023-09-19T12:46:20;8.27;;;2.40;;
52554;SDS011;38455;52.710;6.502;2023-09-19T12:49:14;7.72;;;1.73;;
52554;SDS011;38455;52.710;6.502;2023-09-19T12:51:46;7.70;;;1.90;;
52554;SDS011;38455;52.710;6.502;2023-09-19T12:54:12;5.65;;;1.83;;
52554;SDS011;38455;52.710;6.502;2023-09-19T12:56:45;9.63;;;1.98;;
52554;SDS011;38455;52.710;6.502;2023-09-19T12:59:14;7.38;;;1.88;;
52554;SDS011;38455;52.710;6.502;2023-09-19T13:01:40;9.70;;;2.55;;
52554;SDS011;38455;52.710;6.502;2023-09-19T13:04:18;9.50;;;2.58;;
52554;SDS011;38455;52.710;6.502;2023-09-19T13:06:51;9.23;;;2.13;;
52554;SDS011;38455;52.710;6.502;2023-09-19T13:09:17;8.25;;;1.77;;
52554;SDS011;38455;52.710;6.502;2023-09-19T13:11:47;6.30;;;1.83;;
52554;SDS011;38455;52.710;6.502;2023-09-19T13:14:24;8.07;;;1.92;;
52554;SDS011;38455;52.710;6.502;2023-09-19T13:17:06;6.43;;;1.80;;
52554;SDS011;38455;52.710;6.502;2023-09-19T13:19:50;8.00;;;1.92;;
52554;SDS011;38455;52.710;6.502;2023-09-19T13:22:38;6.40;;;2.17;;
52554;SDS011;38455;52.710;6.502;2023-09-19T13:25:11;8.73;;;2.45;;
52554;SDS011;38455;52.710;6.502;2023-09-19T13:27:41;9.43;;;2.05;;
52554;SDS011;38455;52.710;6.502;2023-09-19T13:30:10;8.60;;;1.58;;
52554;SDS011;38455;52.710;6.502;2023-09-19T13:32:36;6.38;;;1.73;;
52554;SDS011;38455;52.710;6.502;2023-09-19T13:35:04;6.85;;;1.80;;
52554;SDS011;38455;52.710;6.502;2023-09-19T13:37:32;10.57;;;2.42;;
52554;SDS011;38455;52.710;6.502;2023-09-19T13:40:00;9.65;;;1.95;;
52554;SDS011;38455;52.710;6.502;2023-09-19T13:42:26;7.97;;;2.67;;
52554;SDS011;38455;52.710;6.502;2023-09-19T13:44:55;7.18;;;1.80;;
52554;SDS011;38455;52.710;6.502;2023-09-19T13:47:21;7.97;;;1.92;;
52554;SDS011;38455;52.710;6.502;2023-09-19T13:49:49;5.35;;;1.77;;
52554;SDS011;38455;52.710;6.502;2023-09-19T13:52:18;7.82;;;1.50;;
52554;SDS011;38455;52.710;6.502;2023-09-19T13:54:44;7.55;;;1.50;;
52554;SDS011;38455;52.710;6.502;2023-09-19T13:57:10;9.75;;;1.55;;
52554;SDS011;38455;52.710;6.502;2023-09-19T13:59:35;9.65;;;1.77;;
52554;SDS011;38455;52.710;6.502;2023-09-19T14:02:02;9.43;;;1.80;;
52554;SDS011;38455;52.710;6.502;2023-09-19T14:04:28;6.13;;;1.52;;
52554;SDS011;38455;52.710;6.502;2023-09-19T14:06:54;8.00;;;1.35;;
52554;SDS011;38455;52.710;6.502;2023-09-19T14:09:20;4.47;;;1.42;;
52554;SDS011;38455;52.710;6.502;2023-09-19T14:11:46;6.72;;;1.20;;
52554;SDS011;38455;52.710;6.502;2023-09-19T14:14:13;7.47;;;1.50;;
52554;SDS011;38455;52.710;6.502;2023-09-19T14:16:39;7.40;;;1.33;;
52554;SDS011;38455;52.710;6.502;2023-09-19T14:19:07;6.72;;;1.48;;
52554;SDS011;38455;52.710;6.502;2023-09-19T14:21:33;7.70;;;1.58;;
52554;SDS011;38455;52.710;6.502;2023-09-19T14:23:59;6.63;;;1.75;;
52554;SDS011;38455;52.710;6.502;2023-09-19T14:26:24;8.02;;;1.25;;
52554;SDS011;38455;52.710;6.502;2023-09-19T14:28:50;6.65;;;1.60;;
52554;SDS011;38455;52.710;6.502;2023-09-19T14:31:16;6.18;;;1.73;;
52554;SDS011;38455;52.710;6.502;2023-09-19T14:33:41;5.07;;;1.40;;
52554;SDS011;38455;52.710;6.502;2023-09-19T14:36:08;4.10;;;1.10;;
52554;SDS011;38455;52.710;6.502;2023-09-19T14:38:35;5.93;;;1.50;;
52554;SDS011;38455;52.710;6.502;2023-09-19T14:41:02;5.85;;;1.30;;
52554;SDS011;38455;52.710;6.502;2023-09-19T14:43:30;3.67;;;1.45;;
52554;SDS011;38455;52.710;6.502;2023-09-19T14:45:57;4.55;;;1.25;;
52554;SDS011;38455;52.710;6.502;2023-09-19T14:48:30;6.30;;;1.20;;
52554;SDS011;38455;52.710;6.502;2023-09-19T14:50:57;4.88;;;1.30;;
52554;SDS011;38455;52.710;6.502;2023-09-19T14:53:37;4.78;;;1.30;;
52554;SDS011;38455;52.710;6.502;2023-09-19T14:56:03;5.03;;;1.30;;
52554;SDS011;38455;52.710;6.502;2023-09-19T14:58:30;8.32;;;1.88;;
52554;SDS011;38455;52.710;6.502;2023-09-19T15:01:06;8.80;;;1.58;;
52554;SDS011;38455;52.710;6.502;2023-09-19T15:03:36;10.07;;;1.70;;
52554;SDS011;38455;52.710;6.502;2023-09-19T15:06:05;6.20;;;1.65;;
52554;SDS011;38455;52.710;6.502;2023-09-19T15:08:34;8.07;;;1.50;;
52554;SDS011;38455;52.710;6.502;2023-09-19T15:11:12;7.65;;;1.40;;
52554;SDS011;38455;52.710;6.502;2023-09-19T15:13:40;8.35;;;1.73;;
52554;SDS011;38455;52.710;6.502;2023-09-19T15:16:07;6.80;;;1.65;;
52554;SDS011;38455;52.710;6.502;2023-09-19T15:18:38;6.03;;;1.50;;
52554;SDS011;38455;52.710;6.502;2023-09-19T15:21:09;6.88;;;1.45;;
52554;SDS011;38455;52.710;6.502;2023-09-19T15:23:36;3.08;;;1.23;;
52554;SDS011;38455;52.710;6.502;2023-09-19T15:26:06;5.93;;;1.75;;
52554;SDS011;38455;52.710;6.502;2023-09-19T15:28:33;6.45;;;1.75;;
52554;SDS011;38455;52.710;6.502;2023-09-19T15:31:00;5.68;;;1.17;;
52554;SDS011;38455;52.710;6.502;2023-09-19T15:33:26;11.38;;;2.03;;
52554;SDS011;38455;52.710;6.502;2023-09-19T15:36:00;5.32;;;1.27;;
52554;SDS011;38455;52.710;6.502;2023-09-19T15:38:32;3.30;;;1.13;;
52554;SDS011;38455;52.710;6.502;2023-09-19T15:41:34;14.02;;;2.13;;
52554;SDS011;38455;52.710;6.502;2023-09-19T15:44:10;8.55;;;2.20;;
52554;SDS011;38455;52.710;6.502;2023-09-19T15:46:37;12.80;;;1.83;;
52554;SDS011;38455;52.710;6.502;2023-09-19T15:49:03;5.10;;;1.45;;